KSMX

Santa Maria Public Airport

Airport
ICAO code
KSMX
Summary
ICAO Region
NAM
ICAO Territory
Location

Santa Maria, California,

Coordinates
34° 53' 56" N , 120° 27' 26" W
KCC
Metar
KSMX 201851Z 29008KT 8SM CLR 17/11 A2989 RMK AO2 SLP124 T01720111

Description

Santa Maria Public Airport, also known as the Capt. G. Allan Hancock Field, is an airport located 5 km south of the central business district of Santa Maria, a city in northern Santa Barbara County, California.

Climatology

Warm Mediterranean climate (Köppen climate classification Csb). Because of the airport's proximity to the ocean, onshore breezes significantly moderate temperatures, resulting in warmer winters and cooler summers compared with places farther inland.

Runways

Designator Length Width Surface Rops
2/20 1564 23 ASP Yes/Yes
12/30 1921 46 ASP Yes/Yes

Airport map

Aerial View

SKYbrary Partners:

Safety knowledge contributed by: